sensor_id;sensor_type;location;lat;lon;timestamp;P1;durP1;ratioP1;P2;durP2;ratioP2
56631;SDS011;42503;39.928;-75.152;2023-07-28T00:00:47;19.52;;;17.17;;
56631;SDS011;42503;39.928;-75.152;2023-07-28T00:10:48;18.73;;;16.73;;
56631;SDS011;42503;39.928;-75.152;2023-07-28T00:20:49;18.50;;;16.50;;
56631;SDS011;42503;39.928;-75.152;2023-07-28T00:30:53;17.90;;;16.00;;
56631;SDS011;42503;39.928;-75.152;2023-07-28T00:40:58;18.13;;;15.38;;
56631;SDS011;42503;39.928;-75.152;2023-07-28T00:50:59;18.73;;;16.17;;
56631;SDS011;42503;39.928;-75.152;2023-07-28T01:01:01;18.90;;;16.85;;
56631;SDS011;42503;39.928;-75.152;2023-07-28T01:11:03;20.45;;;17.35;;
56631;SDS011;42503;39.928;-75.152;2023-07-28T01:21:06;19.45;;;17.20;;
56631;SDS011;42503;39.928;-75.152;2023-07-28T01:31:15;19.88;;;17.27;;
56631;SDS011;42503;39.928;-75.152;2023-07-28T01:41:16;19.55;;;17.25;;
56631;SDS011;42503;39.928;-75.152;2023-07-28T01:51:18;19.65;;;16.50;;
56631;SDS011;42503;39.928;-75.152;2023-07-28T02:01:19;19.10;;;16.83;;
56631;SDS011;42503;39.928;-75.152;2023-07-28T02:11:20;20.17;;;17.73;;
56631;SDS011;42503;39.928;-75.152;2023-07-28T02:21:25;19.92;;;17.13;;
56631;SDS011;42503;39.928;-75.152;2023-07-28T02:31:26;18.73;;;16.73;;
56631;SDS011;42503;39.928;-75.152;2023-07-28T02:41:30;18.83;;;16.42;;
56631;SDS011;42503;39.928;-75.152;2023-07-28T02:51:31;18.25;;;16.05;;
56631;SDS011;42503;39.928;-75.152;2023-07-28T03:01:37;18.58;;;16.58;;
56631;SDS011;42503;39.928;-75.152;2023-07-28T03:11:39;18.63;;;16.63;;
56631;SDS011;42503;39.928;-75.152;2023-07-28T03:21:40;19.58;;;17.23;;
56631;SDS011;42503;39.928;-75.152;2023-07-28T03:31:41;19.08;;;16.27;;
56631;SDS011;42503;39.928;-75.152;2023-07-28T03:41:43;19.92;;;16.42;;
56631;SDS011;42503;39.928;-75.152;2023-07-28T03:51:44;19.10;;;16.98;;
56631;SDS011;42503;39.928;-75.152;2023-07-28T04:01:46;17.95;;;16.02;;
56631;SDS011;42503;39.928;-75.152;2023-07-28T04:11:48;19.38;;;17.23;;
56631;SDS011;42503;39.928;-75.152;2023-07-28T04:21:50;17.70;;;15.82;;
56631;SDS011;42503;39.928;-75.152;2023-07-28T04:31:55;20.17;;;16.45;;
56631;SDS011;42503;39.928;-75.152;2023-07-28T04:41:59;16.57;;;14.77;;
56631;SDS011;42503;39.928;-75.152;2023-07-28T04:52:06;20.42;;;16.27;;
56631;SDS011;42503;39.928;-75.152;2023-07-28T05:02:08;18.25;;;16.25;;
56631;SDS011;42503;39.928;-75.152;2023-07-28T05:12:09;17.77;;;15.88;;
56631;SDS011;42503;39.928;-75.152;2023-07-28T05:22:11;15.85;;;13.82;;
56631;SDS011;42503;39.928;-75.152;2023-07-28T05:32:15;17.35;;;15.15;;
56631;SDS011;42503;39.928;-75.152;2023-07-28T05:42:16;16.98;;;14.95;;
56631;SDS011;42503;39.928;-75.152;2023-07-28T05:52:18;17.23;;;15.43;;
56631;SDS011;42503;39.928;-75.152;2023-07-28T06:02:19;15.77;;;14.07;;
56631;SDS011;42503;39.928;-75.152;2023-07-28T06:12:20;15.45;;;13.95;;
56631;SDS011;42503;39.928;-75.152;2023-07-28T06:22:25;16.30;;;14.43;;
56631;SDS011;42503;39.928;-75.152;2023-07-28T06:32:30;14.65;;;13.15;;
56631;SDS011;42503;39.928;-75.152;2023-07-28T06:42:32;14.95;;;12.68;;
56631;SDS011;42503;39.928;-75.152;2023-07-28T06:52:35;15.07;;;13.48;;
56631;SDS011;42503;39.928;-75.152;2023-07-28T07:02:37;15.15;;;13.57;;
56631;SDS011;42503;39.928;-75.152;2023-07-28T07:12:38;14.48;;;13.00;;
56631;SDS011;42503;39.928;-75.152;2023-07-28T07:22:40;13.93;;;12.50;;
56631;SDS011;42503;39.928;-75.152;2023-07-28T07:32:41;14.25;;;12.73;;
56631;SDS011;42503;39.928;-75.152;2023-07-28T07:42:45;13.27;;;11.50;;
56631;SDS011;42503;39.928;-75.152;2023-07-28T07:52:48;13.23;;;11.82;;
56631;SDS011;42503;39.928;-75.152;2023-07-28T08:02:52;14.80;;;12.60;;
56631;SDS011;42503;39.928;-75.152;2023-07-28T08:12:55;13.43;;;11.95;;
56631;SDS011;42503;39.928;-75.152;2023-07-28T08:22:56;13.18;;;11.55;;
56631;SDS011;42503;39.928;-75.152;2023-07-28T08:32:57;12.50;;;11.20;;
56631;SDS011;42503;39.928;-75.152;2023-07-28T08:42:59;11.50;;;10.32;;
56631;SDS011;42503;39.928;-75.152;2023-07-28T08:53:01;12.88;;;11.20;;
56631;SDS011;42503;39.928;-75.152;2023-07-28T09:03:04;12.57;;;11.35;;
56631;SDS011;42503;39.928;-75.152;2023-07-28T09:13:07;12.13;;;10.80;;
56631;SDS011;42503;39.928;-75.152;2023-07-28T09:23:13;12.70;;;11.40;;
56631;SDS011;42503;39.928;-75.152;2023-07-28T09:33:29;12.80;;;11.50;;
56631;SDS011;42503;39.928;-75.152;2023-07-28T09:43:31;11.80;;;10.60;;
56631;SDS011;42503;39.928;-75.152;2023-07-28T09:53:33;12.27;;;11.00;;
56631;SDS011;42503;39.928;-75.152;2023-07-28T10:03:41;12.43;;;11.15;;
56631;SDS011;42503;39.928;-75.152;2023-07-28T10:13:44;12.00;;;10.48;;
56631;SDS011;42503;39.928;-75.152;2023-07-28T10:23:53;12.70;;;11.38;;
56631;SDS011;42503;39.928;-75.152;2023-07-28T10:33:56;12.50;;;11.20;;
56631;SDS011;42503;39.928;-75.152;2023-07-28T10:43:57;12.10;;;10.80;;
56631;SDS011;42503;39.928;-75.152;2023-07-28T10:53:59;11.68;;;10.48;;
56631;SDS011;42503;39.928;-75.152;2023-07-28T11:14:17;10.75;;;9.65;;
56631;SDS011;42503;39.928;-75.152;2023-07-28T11:24:19;11.13;;;9.95;;
56631;SDS011;42503;39.928;-75.152;2023-07-28T11:34:21;11.20;;;10.00;;
56631;SDS011;42503;39.928;-75.152;2023-07-28T11:44:23;10.27;;;8.50;;
56631;SDS011;42503;39.928;-75.152;2023-07-28T11:54:25;10.20;;;8.93;;
56631;SDS011;42503;39.928;-75.152;2023-07-28T12:04:28;10.18;;;9.10;;
56631;SDS011;42503;39.928;-75.152;2023-07-28T12:14:34;9.60;;;8.60;;
56631;SDS011;42503;39.928;-75.152;2023-07-28T12:24:35;10.05;;;8.88;;
56631;SDS011;42503;39.928;-75.152;2023-07-28T12:34:37;9.80;;;8.63;;
56631;SDS011;42503;39.928;-75.152;2023-07-28T12:44:38;9.05;;;8.05;;
56631;SDS011;42503;39.928;-75.152;2023-07-28T12:54:42;9.82;;;8.55;;
56631;SDS011;42503;39.928;-75.152;2023-07-28T13:04:44;8.88;;;7.97;;
56631;SDS011;42503;39.928;-75.152;2023-07-28T13:14:45;8.90;;;8.00;;
56631;SDS011;42503;39.928;-75.152;2023-07-28T13:24:47;9.00;;;8.10;;
56631;SDS011;42503;39.928;-75.152;2023-07-28T13:34:48;9.20;;;8.23;;
56631;SDS011;42503;39.928;-75.152;2023-07-28T13:44:49;8.40;;;7.60;;
56631;SDS011;42503;39.928;-75.152;2023-07-28T13:54:52;8.85;;;7.88;;
56631;SDS011;42503;39.928;-75.152;2023-07-28T14:04:53;8.48;;;7.68;;
56631;SDS011;42503;39.928;-75.152;2023-07-28T14:14:55;8.10;;;7.40;;
56631;SDS011;42503;39.928;-75.152;2023-07-28T14:24:56;9.38;;;7.97;;
56631;SDS011;42503;39.928;-75.152;2023-07-28T14:34:57;6.88;;;6.28;;
56631;SDS011;42503;39.928;-75.152;2023-07-28T14:44:59;7.93;;;7.13;;
56631;SDS011;42503;39.928;-75.152;2023-07-28T14:55:00;7.78;;;6.97;;
56631;SDS011;42503;39.928;-75.152;2023-07-28T15:05:01;8.38;;;7.15;;
56631;SDS011;42503;39.928;-75.152;2023-07-28T15:15:03;7.80;;;6.45;;
56631;SDS011;42503;39.928;-75.152;2023-07-28T15:25:05;8.45;;;7.55;;
56631;SDS011;42503;39.928;-75.152;2023-07-28T15:35:07;8.00;;;7.20;;
56631;SDS011;42503;39.928;-75.152;2023-07-28T15:45:08;8.05;;;7.15;;
56631;SDS011;42503;39.928;-75.152;2023-07-28T15:55:10;7.88;;;7.07;;
56631;SDS011;42503;39.928;-75.152;2023-07-28T16:05:11;8.32;;;7.53;;
56631;SDS011;42503;39.928;-75.152;2023-07-28T16:15:13;8.43;;;7.40;;
56631;SDS011;42503;39.928;-75.152;2023-07-28T16:25:15;8.05;;;7.05;;
56631;SDS011;42503;39.928;-75.152;2023-07-28T16:35:17;8.88;;;7.95;;
56631;SDS011;42503;39.928;-75.152;2023-07-28T16:45:18;9.52;;;7.80;;
56631;SDS011;42503;39.928;-75.152;2023-07-28T16:55:19;7.90;;;7.10;;
56631;SDS011;42503;39.928;-75.152;2023-07-28T17:05:21;8.85;;;7.72;;
56631;SDS011;42503;39.928;-75.152;2023-07-28T17:15:23;8.48;;;7.68;;
56631;SDS011;42503;39.928;-75.152;2023-07-28T17:25:24;8.55;;;7.65;;
56631;SDS011;42503;39.928;-75.152;2023-07-28T17:35:25;8.57;;;7.53;;
56631;SDS011;42503;39.928;-75.152;2023-07-28T17:45:27;8.38;;;7.57;;
56631;SDS011;42503;39.928;-75.152;2023-07-28T17:55:31;10.32;;;8.55;;
56631;SDS011;42503;39.928;-75.152;2023-07-28T18:05:32;8.73;;;7.82;;
56631;SDS011;42503;39.928;-75.152;2023-07-28T18:15:37;9.13;;;7.43;;
56631;SDS011;42503;39.928;-75.152;2023-07-28T18:25:38;8.70;;;7.82;;
56631;SDS011;42503;39.928;-75.152;2023-07-28T18:35:39;8.25;;;7.45;;
56631;SDS011;42503;39.928;-75.152;2023-07-28T18:45:43;9.15;;;7.82;;
56631;SDS011;42503;39.928;-75.152;2023-07-28T18:55:45;9.30;;;8.23;;
56631;SDS011;42503;39.928;-75.152;2023-07-28T19:05:47;9.05;;;8.13;;
56631;SDS011;42503;39.928;-75.152;2023-07-28T19:15:48;8.68;;;7.63;;
56631;SDS011;42503;39.928;-75.152;2023-07-28T19:25:50;9.30;;;8.20;;
56631;SDS011;42503;39.928;-75.152;2023-07-28T19:35:52;9.52;;;8.55;;
56631;SDS011;42503;39.928;-75.152;2023-07-28T19:45:54;10.13;;;9.02;;
56631;SDS011;42503;39.928;-75.152;2023-07-28T19:55:59;11.18;;;9.48;;
56631;SDS011;42503;39.928;-75.152;2023-07-28T20:06:01;10.73;;;9.50;;
56631;SDS011;42503;39.928;-75.152;2023-07-28T20:16:02;11.10;;;9.95;;
56631;SDS011;42503;39.928;-75.152;2023-07-28T20:26:04;12.98;;;11.23;;
56631;SDS011;42503;39.928;-75.152;2023-07-28T20:36:14;12.70;;;10.65;;
56631;SDS011;42503;39.928;-75.152;2023-07-28T20:46:16;13.57;;;12.18;;
56631;SDS011;42503;39.928;-75.152;2023-07-28T20:56:21;14.27;;;12.77;;
56631;SDS011;42503;39.928;-75.152;2023-07-28T21:06:22;13.82;;;12.43;;
56631;SDS011;42503;39.928;-75.152;2023-07-28T21:16:23;15.07;;;12.82;;
56631;SDS011;42503;39.928;-75.152;2023-07-28T21:26:25;14.40;;;12.90;;
56631;SDS011;42503;39.928;-75.152;2023-07-28T21:36:26;15.40;;;13.65;;
56631;SDS011;42503;39.928;-75.152;2023-07-28T21:46:30;17.67;;;14.40;;
56631;SDS011;42503;39.928;-75.152;2023-07-28T21:56:33;18.70;;;15.68;;
56631;SDS011;42503;39.928;-75.152;2023-07-28T22:06:35;20.35;;;17.15;;
56631;SDS011;42503;39.928;-75.152;2023-07-28T22:16:37;18.90;;;16.48;;
56631;SDS011;42503;39.928;-75.152;2023-07-28T22:26:38;20.48;;;17.55;;
56631;SDS011;42503;39.928;-75.152;2023-07-28T22:36:41;20.60;;;18.33;;
56631;SDS011;42503;39.928;-75.152;2023-07-28T22:46:42;21.75;;;18.73;;
56631;SDS011;42503;39.928;-75.152;2023-07-28T22:56:43;20.50;;;18.27;;
56631;SDS011;42503;39.928;-75.152;2023-07-28T23:06:45;23.30;;;19.52;;
56631;SDS011;42503;39.928;-75.152;2023-07-28T23:16:47;24.02;;;19.15;;
56631;SDS011;42503;39.928;-75.152;2023-07-28T23:26:50;23.75;;;19.20;;
56631;SDS011;42503;39.928;-75.152;2023-07-28T23:36:51;26.35;;;21.05;;
56631;SDS011;42503;39.928;-75.152;2023-07-28T23:46:54;22.77;;;19.17;;
56631;SDS011;42503;39.928;-75.152;2023-07-28T23:56:56;24.20;;;21.52;;
